Time;durP1;ratioP1;P1;durP2;ratioP2;P2;SDS_P1;SDS_P2;PMS_P1;PMS_P2;Temp;Humidity;BMP_temperature;BMP_pressure;BME280_temperature;BME280_humidity;BME280_pressure;Samples;Min_cycle;Max_cycle;Signal;HPM_P1;HPM_P2
2022/05/17 00:00:18;;;;;;;8.70;5.70;;;;;;;;;;5051796;28;20025;-49
2022/05/17 00:02:43;;;;;;;8.27;5.60;;;;;;;;;;5051661;28;20565;-47
2022/05/17 00:05:09;;;;;;;9.68;6.13;;;;;;;;;;5054120;28;20388;-47
2022/05/17 00:07:35;;;;;;;9.32;6.13;;;;;;;;;;5054823;28;20033;-47
2022/05/17 00:10:00;;;;;;;9.27;5.57;;;;;;;;;;5054642;28;20025;-50
2022/05/17 00:12:25;;;;;;;8.57;5.60;;;;;;;;;;5054294;28;20496;-50
2022/05/17 00:14:52;;;;;;;12.23;5.63;;;;;;;;;;5054293;28;20021;-51
2022/05/17 00:17:18;;;;;;;13.27;5.72;;;;;;;;;;5054251;28;20427;-48
2022/05/17 00:19:44;;;;;;;7.82;5.65;;;;;;;;;;5053613;28;20096;-49
2022/05/17 00:22:10;;;;;;;7.32;5.32;;;;;;;;;;5054147;28;20441;-46
2022/05/17 00:24:35;;;;;;;17.38;5.85;;;;;;;;;;5052849;28;20027;-44
2022/05/17 00:27:01;;;;;;;11.50;6.20;;;;;;;;;;5052563;28;20021;-47
2022/05/17 00:29:26;;;;;;;9.90;5.72;;;;;;;;;;5053017;28;20057;-47
2022/05/17 00:31:52;;;;;;;12.13;5.43;;;;;;;;;;5052993;28;20472;-49
2022/05/17 00:34:17;;;;;;;10.90;6.22;;;;;;;;;;5052988;28;20027;-52
2022/05/17 00:36:43;;;;;;;10.55;6.63;;;;;;;;;;5052820;28;20028;-46
2022/05/17 00:39:08;;;;;;;9.52;5.72;;;;;;;;;;5054032;28;20024;-50
2022/05/17 00:41:34;;;;;;;7.10;5.88;;;;;;;;;;5054592;28;20079;-45
2022/05/17 00:47:07;;;;;;;7.45;6.13;;;;;;;;;;5054583;28;20055;-47
2022/05/17 00:49:45;;;;;;;10.15;6.72;;;;;;;;;;5054646;28;20047;-50
2022/05/17 00:52:20;;;;;;;9.50;6.57;;;;;;;;;;5054382;28;20495;-49
2022/05/17 00:54:46;;;;;;;11.18;6.57;;;;;;;;;;5054544;28;20037;-46
2022/05/17 00:57:23;;;;;;;9.45;6.15;;;;;;;;;;5054182;28;20047;-49
2022/05/17 00:59:49;;;;;;;12.40;7.35;;;;;;;;;;5054013;28;20025;-48
2022/05/17 01:02:15;;;;;;;8.43;6.05;;;;;;;;;;5053220;28;20132;-46
2022/05/17 01:04:41;;;;;;;10.18;6.45;;;;;;;;;;5054404;28;20053;-47
2022/05/17 01:07:24;;;;;;;10.30;6.22;;;;;;;;;;5054006;28;20538;-45
2022/05/17 01:09:49;;;;;;;11.48;6.78;;;;;;;;;;5052621;28;20032;-47
2022/05/17 01:12:15;;;;;;;10.75;6.57;;;;;;;;;;5054179;28;20025;-47
2022/05/17 01:15:00;;;;;;;12.00;6.68;;;;;;;;;;5052853;28;20057;-44
2022/05/17 01:17:27;;;;;;;6.80;5.60;;;;;;;;;;5054086;28;20021;-48
2022/05/17 01:19:53;;;;;;;7.60;6.63;;;;;;;;;;5054083;28;20021;-45
2022/05/17 01:22:18;;;;;;;13.63;7.13;;;;;;;;;;5053915;28;20082;-47
2022/05/17 01:24:44;;;;;;;16.85;7.07;;;;;;;;;;5053926;28;20414;-45
2022/05/17 01:27:14;;;;;;;25.40;6.57;;;;;;;;;;5053648;28;20450;-47
2022/05/17 01:29:42;;;;;;;13.25;7.32;;;;;;;;;;5053581;28;20044;-45
2022/05/17 01:32:10;;;;;;;9.77;6.55;;;;;;;;;;5053476;28;20460;-49
2022/05/17 01:34:36;;;;;;;9.73;6.43;;;;;;;;;;5053511;28;20043;-48
2022/05/17 01:37:03;;;;;;;13.00;6.13;;;;;;;;;;5053754;28;20060;-46
2022/05/17 01:39:29;;;;;;;11.38;6.40;;;;;;;;;;5053351;28;20100;-48
2022/05/17 01:41:54;;;;;;;16.23;6.55;;;;;;;;;;5053829;28;20123;-49
2022/05/17 01:44:20;;;;;;;18.27;6.78;;;;;;;;;;5053479;28;20032;-47
2022/05/17 01:46:45;;;;;;;20.45;6.75;;;;;;;;;;5053249;28;20025;-49
2022/05/17 01:49:11;;;;;;;15.38;7.32;;;;;;;;;;5053486;28;20040;-47
2022/05/17 01:51:36;;;;;;;12.07;6.63;;;;;;;;;;5053191;28;20052;-49
2022/05/17 01:54:02;;;;;;;10.07;6.40;;;;;;;;;;5053418;28;20029;-47
2022/05/17 01:56:27;;;;;;;9.57;6.50;;;;;;;;;;5053091;28;20021;-49
2022/05/17 01:58:53;;;;;;;12.32;6.15;;;;;;;;;;5053360;28;20040;-48
2022/05/17 02:01:18;;;;;;;10.15;6.35;;;;;;;;;;5053249;28;20071;-47
2022/05/17 02:03:44;;;;;;;7.75;5.85;;;;;;;;;;5052812;28;20055;-47
2022/05/17 02:06:10;;;;;;;10.70;6.35;;;;;;;;;;5053222;28;20052;-49
2022/05/17 02:08:35;;;;;;;9.73;6.78;;;;;;;;;;5052871;28;20032;-46
2022/05/17 02:11:01;;;;;;;8.55;6.30;;;;;;;;;;5053108;28;20361;-46
2022/05/17 02:13:26;;;;;;;11.18;6.93;;;;;;;;;;5053027;28;20422;-46
2022/05/17 02:15:52;;;;;;;8.65;6.35;;;;;;;;;;5052774;28;20384;-48
2022/05/17 02:18:17;;;;;;;13.68;6.65;;;;;;;;;;5053002;28;20056;-47
2022/05/17 02:20:43;;;;;;;12.60;6.80;;;;;;;;;;5053098;28;20021;-47
2022/05/17 02:23:08;;;;;;;11.52;6.47;;;;;;;;;;5052672;28;20025;-49
2022/05/17 02:25:35;;;;;;;9.23;6.95;;;;;;;;;;5034793;28;20056;-47
2022/05/17 02:28:01;;;;;;;9.00;6.78;;;;;;;;;;5034411;28;20024;-46
2022/05/17 02:30:26;;;;;;;9.98;6.80;;;;;;;;;;5052712;28;20025;-50
2022/05/17 02:32:53;;;;;;;8.05;6.30;;;;;;;;;;5052457;28;20082;-48
2022/05/17 02:35:18;;;;;;;8.23;6.95;;;;;;;;;;5052693;28;20021;-50
2022/05/17 02:37:44;;;;;;;10.15;7.63;;;;;;;;;;5052328;28;20036;-49
2022/05/17 02:40:10;;;;;;;11.52;7.10;;;;;;;;;;5052618;28;20043;-47
2022/05/17 02:42:35;;;;;;;15.90;7.63;;;;;;;;;;5052551;28;20377;-51
2022/05/17 02:45:01;;;;;;;13.75;7.75;;;;;;;;;;5052562;28;20029;-46
2022/05/17 02:47:26;;;;;;;7.55;6.75;;;;;;;;;;5052220;28;20532;-47
2022/05/17 02:49:52;;;;;;;12.60;6.47;;;;;;;;;;5052559;28;20032;-49
2022/05/17 02:52:17;;;;;;;11.18;7.00;;;;;;;;;;5052319;28;20447;-46
2022/05/17 02:54:43;;;;;;;9.80;6.50;;;;;;;;;;5052489;28;20465;-45
2022/05/17 02:57:09;;;;;;;12.48;6.85;;;;;;;;;;5052428;28;20131;-44
2022/05/17 02:59:35;;;;;;;11.02;6.72;;;;;;;;;;5052154;28;20025;-44
2022/05/17 03:02:00;;;;;;;12.45;6.90;;;;;;;;;;5051934;28;20041;-47
2022/05/17 03:04:27;;;;;;;18.80;6.47;;;;;;;;;;5052169;28;20056;-44
2022/05/17 03:06:53;;;;;;;28.05;6.50;;;;;;;;;;5052085;28;20036;-47
2022/05/17 03:09:19;;;;;;;9.27;6.03;;;;;;;;;;5034352;28;20066;-48
2022/05/17 03:11:44;;;;;;;6.97;4.88;;;;;;;;;;5052123;28;20029;-47
2022/05/17 03:14:11;;;;;;;4.50;4.00;;;;;;;;;;5052343;28;20067;-45
2022/05/17 03:16:37;;;;;;;6.28;3.90;;;;;;;;;;5051988;28;20024;-49
2022/05/17 03:19:04;;;;;;;6.43;5.18;;;;;;;;;;5052018;28;20111;-48
2022/05/17 03:21:30;;;;;;;11.20;4.90;;;;;;;;;;5052175;28;20032;-46
2022/05/17 03:23:55;;;;;;;5.57;4.38;;;;;;;;;;5051961;28;20384;-49
2022/05/17 03:26:21;;;;;;;6.03;4.72;;;;;;;;;;5052130;28;20060;-49
2022/05/17 03:28:47;;;;;;;5.20;4.50;;;;;;;;;;5051859;28;20416;-48
2022/05/17 03:31:13;;;;;;;8.57;4.78;;;;;;;;;;5051826;28;20021;-45
2022/05/17 03:33:39;;;;;;;5.60;5.00;;;;;;;;;;5052129;28;20037;-45
2022/05/17 03:36:05;;;;;;;7.20;4.50;;;;;;;;;;5052086;28;20037;-45
2022/05/17 03:38:31;;;;;;;9.23;3.95;;;;;;;;;;5052858;28;20029;-50
2022/05/17 03:40:58;;;;;;;4.50;3.60;;;;;;;;;;5055522;28;20021;-45
2022/05/17 03:43:25;;;;;;;5.47;3.42;;;;;;;;;;5055853;28;20384;-44
2022/05/17 03:45:50;;;;;;;4.38;3.10;;;;;;;;;;5055514;28;20031;-45
2022/05/17 03:48:16;;;;;;;4.60;3.45;;;;;;;;;;5055764;28;20111;-48
2022/05/17 03:50:42;;;;;;;5.63;3.20;;;;;;;;;;5055420;28;20033;-45
2022/05/17 03:53:08;;;;;;;4.88;3.47;;;;;;;;;;5055713;28;20032;-46
2022/05/17 03:55:33;;;;;;;5.10;3.45;;;;;;;;;;5055306;28;20025;-48
2022/05/17 03:57:59;;;;;;;8.70;3.15;;;;;;;;;;5055577;28;20028;-47
2022/05/17 04:00:24;;;;;;;5.38;3.22;;;;;;;;;;5055375;28;20025;-46
2022/05/17 04:02:50;;;;;;;4.90;3.50;;;;;;;;;;5055164;28;20044;-46
2022/05/17 04:05:16;;;;;;;4.38;3.00;;;;;;;;;;5055468;28;20104;-49
2022/05/17 04:07:42;;;;;;;3.33;2.95;;;;;;;;;;5055162;28;20388;-45
2022/05/17 04:10:09;;;;;;;6.60;3.88;;;;;;;;;;5054991;28;20032;-51
2022/05/17 04:12:35;;;;;;;3.53;3.20;;;;;;;;;;5055333;28;20444;-48
2022/05/17 04:15:01;;;;;;;8.25;4.10;;;;;;;;;;5054977;28;20052;-51
2022/05/17 04:17:27;;;;;;;7.63;4.95;;;;;;;;;;5055179;28;20041;-51
2022/05/17 04:19:52;;;;;;;8.85;5.38;;;;;;;;;;5055155;28;20499;-50
2022/05/17 04:22:17;;;;;;;7.63;5.13;;;;;;;;;;5055059;28;20502;-51
2022/05/17 04:24:43;;;;;;;9.60;5.40;;;;;;;;;;5055061;28;20028;-45
2022/05/17 04:27:09;;;;;;;9.85;3.92;;;;;;;;;;5055081;28;20032;-51
2022/05/17 04:29:37;;;;;;;7.72;4.13;;;;;;;;;;5054989;28;20027;-52
2022/05/17 04:32:03;;;;;;;10.82;4.93;;;;;;;;;;5054558;28;20530;-50
2022/05/17 04:34:30;;;;;;;14.15;5.90;;;;;;;;;;5054597;28;20052;-54
2022/05/17 04:36:57;;;;;;;9.00;4.93;;;;;;;;;;5054849;28;20029;-47
2022/05/17 04:39:24;;;;;;;9.25;3.33;;;;;;;;;;5054478;28;20033;-47
2022/05/17 04:41:49;;;;;;;4.22;3.05;;;;;;;;;;5054413;28;20033;-49
2022/05/17 04:44:15;;;;;;;8.15;3.53;;;;;;;;;;5054758;28;20083;-49
2022/05/17 04:46:40;;;;;;;4.78;3.20;;;;;;;;;;5054672;28;20024;-50
2022/05/17 04:49:07;;;;;;;5.53;4.50;;;;;;;;;;5054097;28;20091;-49
2022/05/17 04:51:34;;;;;;;6.03;4.15;;;;;;;;;;5054215;28;20037;-46
2022/05/17 04:54:00;;;;;;;5.88;3.90;;;;;;;;;;5054356;28;20052;-48
2022/05/17 04:56:26;;;;;;;8.55;3.95;;;;;;;;;;5054134;28;20036;-47
2022/05/17 04:58:51;;;;;;;7.68;4.10;;;;;;;;;;5054464;28;20025;-48
2022/05/17 05:01:17;;;;;;;4.88;3.83;;;;;;;;;;5054009;28;20385;-47
2022/05/17 05:03:42;;;;;;;4.88;3.60;;;;;;;;;;5054022;28;20132;-51
2022/05/17 05:06:08;;;;;;;4.80;3.83;;;;;;;;;;5054362;28;20384;-45
2022/05/17 05:08:33;;;;;;;5.32;3.85;;;;;;;;;;5053979;28;20028;-48
2022/05/17 05:10:59;;;;;;;4.80;4.10;;;;;;;;;;5054303;28;20025;-51
2022/05/17 05:13:25;;;;;;;6.50;4.38;;;;;;;;;;5054265;28;20609;-51
2022/05/17 05:15:51;;;;;;;10.38;4.13;;;;;;;;;;5036439;28;20431;-49
2022/05/17 05:18:17;;;;;;;6.10;3.80;;;;;;;;;;5053805;28;20028;-50
2022/05/17 05:20:43;;;;;;;7.35;3.95;;;;;;;;;;5052314;28;20028;-55
2022/05/17 05:23:09;;;;;;;5.05;3.90;;;;;;;;;;5052364;28;20029;-49
2022/05/17 05:25:36;;;;;;;7.63;4.20;;;;;;;;;;5053586;28;20468;-52
2022/05/17 05:28:03;;;;;;;7.13;4.40;;;;;;;;;;5052376;28;20040;-46
2022/05/17 05:30:29;;;;;;;5.53;3.55;;;;;;;;;;5053151;28;20025;-50
2022/05/17 05:32:56;;;;;;;6.90;3.95;;;;;;;;;;5053525;28;20052;-52
2022/05/17 05:35:22;;;;;;;5.18;3.80;;;;;;;;;;5053438;28;20476;-48
2022/05/17 05:37:48;;;;;;;5.75;4.13;;;;;;;;;;5053387;28;20033;-47
2022/05/17 05:40:14;;;;;;;8.02;4.07;;;;;;;;;;5053360;28;20025;-54
2022/05/17 05:42:40;;;;;;;4.55;3.33;;;;;;;;;;5053267;28;20526;-54
2022/05/17 05:45:08;;;;;;;6.57;3.88;;;;;;;;;;5053195;28;20024;-49
2022/05/17 05:47:33;;;;;;;7.80;4.07;;;;;;;;;;5052718;28;20024;-47
2022/05/17 05:49:58;;;;;;;5.15;3.40;;;;;;;;;;5052517;28;20050;-46
2022/05/17 05:52:24;;;;;;;7.82;3.63;;;;;;;;;;5053310;28;20074;-48
2022/05/17 05:54:50;;;;;;;5.45;3.72;;;;;;;;;;5053320;28;20094;-47
2022/05/17 05:57:15;;;;;;;4.80;3.47;;;;;;;;;;5052377;28;20453;-48
2022/05/17 05:59:41;;;;;;;6.97;4.20;;;;;;;;;;5052364;28;20033;-48
2022/05/17 06:02:08;;;;;;;4.85;3.35;;;;;;;;;;5052096;28;20053;-49
2022/05/17 06:04:34;;;;;;;8.80;4.13;;;;;;;;;;5052782;28;20025;-45
2022/05/17 06:06:59;;;;;;;5.40;3.70;;;;;;;;;;5052911;28;20021;-49
2022/05/17 06:09:26;;;;;;;10.20;4.85;;;;;;;;;;5052770;28;20358;-49
2022/05/17 06:11:52;;;;;;;5.80;3.95;;;;;;;;;;5052976;28;20103;-45
2022/05/17 06:14:19;;;;;;;6.07;4.45;;;;;;;;;;5052740;28;20053;-48
2022/05/17 06:16:44;;;;;;;7.55;4.40;;;;;;;;;;5052812;28;20049;-47
2022/05/17 06:19:10;;;;;;;9.52;5.22;;;;;;;;;;5052604;28;20029;-52
2022/05/17 06:21:36;;;;;;;8.70;4.65;;;;;;;;;;5052430;28;20051;-52
2022/05/17 06:24:05;;;;;;;9.05;5.72;;;;;;;;;;5052740;28;20035;-49
2022/05/17 06:26:31;;;;;;;6.55;4.80;;;;;;;;;;5052870;28;20021;-49
2022/05/17 06:28:56;;;;;;;6.75;4.93;;;;;;;;;;5052736;28;20075;-49
2022/05/17 06:31:22;;;;;;;11.35;6.05;;;;;;;;;;5052504;28;20380;-51
2022/05/17 06:33:48;;;;;;;10.65;4.57;;;;;;;;;;5052450;28;20109;-44
2022/05/17 06:36:13;;;;;;;8.82;4.85;;;;;;;;;;5052487;28;20028;-46
2022/05/17 06:38:39;;;;;;;12.95;5.68;;;;;;;;;;5052366;28;20025;-46
2022/05/17 06:41:04;;;;;;;7.32;5.20;;;;;;;;;;5052268;28;20025;-52
2022/05/17 06:43:34;;;;;;;12.02;5.90;;;;;;;;;;5052417;28;20036;-49
2022/05/17 06:45:59;;;;;;;;;;;;;;;;;;5052742;28;20031;-51
2022/05/17 06:48:24;;;;;;;9.63;6.05;;;;;;;;;;5052297;28;20003;-53
2022/05/17 06:50:50;;;;;;;12.80;6.40;;;;;;;;;;5052546;28;20033;-52
2022/05/17 06:53:15;;;;;;;9.27;7.00;;;;;;;;;;5052514;28;20029;-45
2022/05/17 06:55:41;;;;;;;9.20;6.47;;;;;;;;;;5052282;28;20122;-49
2022/05/17 06:58:08;;;;;;;10.88;7.50;;;;;;;;;;5052022;28;20028;-54
2022/05/17 07:00:33;;;;;;;9.27;6.68;;;;;;;;;;5051917;28;20029;-50
2022/05/17 07:02:59;;;;;;;10.15;6.85;;;;;;;;;;5051921;28;20487;-52
2022/05/17 07:05:26;;;;;;;13.27;7.43;;;;;;;;;;5052119;28;20032;-44
2022/05/17 07:07:53;;;;;;;12.00;7.57;;;;;;;;;;5052419;28;20051;-54
2022/05/17 07:13:08;;;;;;;9.65;6.78;;;;;;;;;;5054412;28;20032;-53
2022/05/17 07:15:35;;;;;;;10.48;7.38;;;;;;;;;;5056464;28;20041;-49
2022/05/17 07:18:01;;;;;;;14.63;6.57;;;;;;;;;;5056240;28;20025;-53
2022/05/17 07:20:29;;;;;;;10.35;6.70;;;;;;;;;;5055880;28;20047;-54
2022/05/17 07:22:55;;;;;;;12.87;7.37;;;;;;;;;;5052240;28;20033;-46
2022/05/17 07:25:21;;;;;;;13.77;8.10;;;;;;;;;;5053645;28;20439;-44
2022/05/17 07:27:47;;;;;;;10.75;7.10;;;;;;;;;;5055936;28;20437;-54
2022/05/17 07:30:13;;;;;;;13.45;8.48;;;;;;;;;;5056115;28;20082;-54
2022/05/17 07:32:38;;;;;;;12.85;7.82;;;;;;;;;;5056082;28;20029;-47
2022/05/17 07:35:06;;;;;;;13.73;7.47;;;;;;;;;;5056035;28;20456;-50
2022/05/17 07:37:33;;;;;;;14.02;8.23;;;;;;;;;;5055723;28;20056;-53
2022/05/17 07:39:59;;;;;;;14.25;7.70;;;;;;;;;;5055631;28;20032;-51
2022/05/17 07:42:25;;;;;;;11.45;7.50;;;;;;;;;;5055821;28;20029;-42
2022/05/17 07:44:50;;;;;;;16.25;8.00;;;;;;;;;;5055420;28;20373;-52
2022/05/17 07:47:16;;;;;;;13.52;6.47;;;;;;;;;;5055645;28;20032;-50
2022/05/17 07:49:42;;;;;;;13.25;6.60;;;;;;;;;;5055380;28;20399;-53
2022/05/17 07:52:09;;;;;;;11.18;6.47;;;;;;;;;;5055231;28;20037;-52
2022/05/17 07:54:36;;;;;;;8.98;5.05;;;;;;;;;;5055414;28;20108;-55
2022/05/17 07:57:01;;;;;;;19.52;8.20;;;;;;;;;;5055069;28;20029;-55
2022/05/17 07:59:26;;;;;;;11.95;6.43;;;;;;;;;;5055082;28;20099;-56
2022/05/17 08:01:52;;;;;;;10.55;4.53;;;;;;;;;;5054825;28;20037;-54
2022/05/17 08:04:17;;;;;;;8.05;4.63;;;;;;;;;;5054560;28;20048;-55
2022/05/17 08:06:43;;;;;;;7.50;4.70;;;;;;;;;;5054700;28;20048;-48
2022/05/17 08:09:08;;;;;;;18.83;5.97;;;;;;;;;;5055061;28;20076;-55
2022/05/17 08:11:34;;;;;;;7.97;4.28;;;;;;;;;;5055273;28;20384;-46
2022/05/17 08:13:59;;;;;;;10.13;4.50;;;;;;;;;;5054562;28;20380;-57
2022/05/17 08:16:25;;;;;;;9.13;4.55;;;;;;;;;;5055018;28;20104;-53
2022/05/17 08:18:50;;;;;;;5.72;3.97;;;;;;;;;;5054735;28;20171;-54
2022/05/17 08:21:15;;;;;;;5.32;3.53;;;;;;;;;;5054829;28;20032;-45
2022/05/17 08:23:41;;;;;;;6.13;4.07;;;;;;;;;;5054619;28;20045;-48
2022/05/17 08:28:51;;;;;;;7.15;4.10;;;;;;;;;;5055046;28;20119;-47
2022/05/17 08:31:17;;;;;;;14.02;4.75;;;;;;;;;;5054784;28;20025;-48
2022/05/17 08:33:42;;;;;;;8.48;4.45;;;;;;;;;;5036681;28;20119;-46
2022/05/17 08:36:09;;;;;;;4.97;3.47;;;;;;;;;;5054611;28;20028;-45
2022/05/17 08:38:40;;;;;;;12.02;4.13;;;;;;;;;;5054473;28;20511;-46
2022/05/17 08:41:26;;;;;;;9.63;4.53;;;;;;;;;;5054610;28;20040;-53
2022/05/17 08:43:54;;;;;;;7.00;3.60;;;;;;;;;;5054808;28;20108;-46
2022/05/17 08:46:41;;;;;;;13.70;5.70;;;;;;;;;;5054731;28;20043;-51
2022/05/17 08:49:12;;;;;;;7.35;4.40;;;;;;;;;;5054516;28;20040;-52
2022/05/17 08:51:43;;;;;;;7.03;4.40;;;;;;;;;;5054597;28;20029;-49
2022/05/17 08:54:14;;;;;;;12.45;3.50;;;;;;;;;;5054579;28;20036;-48
2022/05/17 08:56:47;;;;;;;8.40;5.03;;;;;;;;;;5054426;28;20159;-50
2022/05/17 08:59:18;;;;;;;7.53;4.55;;;;;;;;;;5054345;28;20040;-51
2022/05/17 09:01:47;;;;;;;16.77;4.95;;;;;;;;;;5053967;28;20547;-51
2022/05/17 09:04:32;;;;;;;9.70;5.15;;;;;;;;;;5054286;28;20041;-53
2022/05/17 09:07:20;;;;;;;7.97;4.18;;;;;;;;;;5054266;28;20041;-47
2022/05/17 09:09:46;;;;;;;;;;;;;;;;;;5054550;28;20056;-44
2022/05/17 09:12:25;;;;;;;4.05;2.90;;;;;;;;;;5053878;28;20088;-44
2022/05/17 09:14:53;;;;;;;9.57;3.20;;;;;;;;;;5053945;28;20499;-47
2022/05/17 09:17:21;;;;;;;9.23;5.40;;;;;;;;;;5053999;28;20021;-44
2022/05/17 09:19:51;;;;;;;15.68;7.63;;;;;;;;;;5053784;28;20036;-48
2022/05/17 09:22:18;;;;;;;14.90;7.82;;;;;;;;;;5053998;28;20040;-44
2022/05/17 09:24:46;;;;;;;19.13;8.10;;;;;;;;;;5053613;28;20484;-47
2022/05/17 09:27:30;;;;;;;6.40;4.90;;;;;;;;;;5053888;28;20039;-45
2022/05/17 09:30:05;;;;;;;7.28;4.97;;;;;;;;;;5035620;28;20037;-44
2022/05/17 09:32:33;;;;;;;6.60;3.38;;;;;;;;;;5053512;28;20468;-48
2022/05/17 09:35:11;;;;;;;5.00;3.58;;;;;;;;;;5053802;28;20025;-46
2022/05/17 09:37:40;;;;;;;6.07;3.60;;;;;;;;;;5052629;28;20029;-48
2022/05/17 09:40:09;;;;;;;9.73;4.78;;;;;;;;;;5053291;28;20025;-45
2022/05/17 09:42:42;;;;;;;12.55;6.47;;;;;;;;;;5053626;28;20098;-44
2022/05/17 09:45:15;;;;;;;17.90;7.00;;;;;;;;;;5053626;28;20036;-45
2022/05/17 09:47:58;;;;;;;7.70;5.20;;;;;;;;;;5053549;28;20163;-48
2022/05/17 09:53:14;;;;;;;11.30;3.17;;;;;;;;;;5053350;28;20039;-47
2022/05/17 09:55:43;;;;;;;5.45;3.10;;;;;;;;;;5053328;28;20087;-46
2022/05/17 09:58:36;;;;;;;6.05;2.83;;;;;;;;;;5130781;27;20132;-46
2022/05/17 10:01:36;;;;;;;7.70;3.05;;;;;;;;;;5130701;28;20065;-45
2022/05/17 10:04:12;;;;;;;5.25;3.30;;;;;;;;;;5130678;28;20027;-46
2022/05/17 10:06:41;;;;;;;6.63;2.50;;;;;;;;;;5130887;28;20032;-46
2022/05/17 10:09:09;;;;;;;4.30;2.80;;;;;;;;;;5130568;28;20031;-47
2022/05/17 10:11:52;;;;;;;3.78;2.70;;;;;;;;;;5130522;28;20043;-47
2022/05/17 10:14:44;;;;;;;5.95;2.67;;;;;;;;;;5130309;28;20118;-50
2022/05/17 10:17:15;;;;;;;36.97;3.55;;;;;;;;;;5130471;28;20027;-46
2022/05/17 10:19:52;;;;;;;8.00;2.75;;;;;;;;;;5130311;28;20613;-45
2022/05/17 10:22:29;;;;;;;7.07;2.70;;;;;;;;;;5130570;28;20020;-46
2022/05/17 10:25:01;;;;;;;6.78;2.80;;;;;;;;;;5130284;28;20478;-43
2022/05/17 10:27:34;;;;;;;5.57;3.00;;;;;;;;;;5130178;28;20429;-45
2022/05/17 10:30:10;;;;;;;10.38;3.30;;;;;;;;;;5130373;28;20024;-43
2022/05/17 10:32:49;;;;;;;6.30;3.25;;;;;;;;;;5130220;28;20019;-43
2022/05/17 10:35:28;;;;;;;6.87;3.20;;;;;;;;;;5129920;28;20028;-50
2022/05/17 10:37:59;;;;;;;3.50;2.88;;;;;;;;;;5129551;28;20529;-47
2022/05/17 10:40:30;;;;;;;8.32;2.75;;;;;;;;;;5130196;28;20035;-56
2022/05/17 10:42:57;;;;;;;10.18;2.97;;;;;;;;;;5130025;28;20084;-51
2022/05/17 10:45:32;;;;;;;7.97;3.13;;;;;;;;;;5129825;28;20031;-49
2022/05/17 10:48:34;;;;;;;10.95;2.80;;;;;;;;;;5129666;28;20035;-49
2022/05/17 10:51:38;;;;;;;5.07;3.20;;;;;;;;;;5090769;28;20130;-53
2022/05/17 10:54:24;;;;;;;5.50;2.90;;;;;;;;;;5129926;28;20437;-51
2022/05/17 10:57:05;;;;;;;15.40;4.25;;;;;;;;;;5129445;28;20043;-45
2022/05/17 10:59:48;;;;;;;5.20;2.60;;;;;;;;;;5129447;28;20478;-48
2022/05/17 11:02:19;;;;;;;14.98;4.53;;;;;;;;;;5129238;28;20024;-51
2022/05/17 11:05:34;;;;;;;6.07;3.60;;;;;;;;;;5129694;28;20046;-46
2022/05/17 11:08:05;;;;;;;10.40;5.57;;;;;;;;;;5062756;28;20497;-45
2022/05/17 11:10:48;;;;;;;5.30;4.03;;;;;;;;;;5115536;28;20402;-45
2022/05/17 11:13:33;;;;;;;16.20;6.70;;;;;;;;;;5115355;28;20528;-46
2022/05/17 11:16:12;;;;;;;9.63;5.38;;;;;;;;;;5114877;28;20049;-46
2022/05/17 11:19:04;;;;;;;7.05;3.75;;;;;;;;;;5115879;28;20019;-53
2022/05/17 11:21:32;;;;;;;8.52;4.53;;;;;;;;;;5112373;28;20043;-44
2022/05/17 11:24:34;;;;;;;9.10;4.10;;;;;;;;;;5115717;28;20036;-48
2022/05/17 11:27:24;;;;;;;5.85;3.70;;;;;;;;;;5115082;28;20483;-49
2022/05/17 11:29:55;;;;;;;;;;;;;;;;;;5116104;28;20035;-44
2022/05/17 11:32:28;;;;;;;6.07;4.20;;;;;;;;;;5115423;28;20272;-47
2022/05/17 11:34:56;;;;;;;6.72;3.78;;;;;;;;;;5115784;28;20424;-51
2022/05/17 11:37:34;;;;;;;5.68;3.70;;;;;;;;;;5115222;28;20459;-51
2022/05/17 11:40:07;;;;;;;6.05;4.25;;;;;;;;;;5115392;28;20123;-49
2022/05/17 11:43:40;;;;;;;9.80;4.10;;;;;;;;;;5115185;28;20069;-47
2022/05/17 11:45:40;;;;;;;13.20;4.18;;;;;;;;;;5114900;28;20040;-45
2022/05/17 11:48:14;;;;;;;9.88;4.40;;;;;;;;;;5115315;28;20043;-46
2022/05/17 11:50:58;;;;;;;8.32;3.85;;;;;;;;;;5115204;28;20027;-46
2022/05/17 11:53:23;;;;;;;7.78;3.90;;;;;;;;;;5114710;28;20031;-48
2022/05/17 11:56:32;;;;;;;7.57;4.35;;;;;;;;;;5114401;28;20020;-50
2022/05/17 11:58:59;;;;;;;;;;;;;;;;;;5115179;28;20494;-46
2022/05/17 12:01:30;;;;;;;17.95;5.10;;;;;;;;;;5114260;28;19913;-50
2022/05/17 12:03:56;;;;;;;20.63;7.28;;;;;;;;;;5113764;28;20467;-49
2022/05/17 12:06:40;;;;;;;4.13;3.70;;;;;;;;;;5112599;28;20023;-49
2022/05/17 12:09:18;;;;;;;7.13;4.65;;;;;;;;;;5113059;28;20459;-49
2022/05/17 12:11:49;;;;;;;4.40;3.70;;;;;;;;;;5112772;28;20444;-50
2022/05/17 12:14:29;;;;;;;7.55;4.63;;;;;;;;;;5112849;28;20045;-51
2022/05/17 12:17:02;;;;;;;10.73;6.47;;;;;;;;;;5112585;28;20052;-47
2022/05/17 12:19:35;;;;;;;7.88;3.60;;;;;;;;;;5112706;28;20035;-49
2022/05/17 12:22:28;;;;;;;14.82;5.50;;;;;;;;;;5114224;28;20111;-46
2022/05/17 12:25:17;;;;;;;9.25;5.35;;;;;;;;;;5105709;28;20032;-49
2022/05/17 12:27:45;;;;;;;5.95;4.10;;;;;;;;;;5113437;28;20056;-46
2022/05/17 12:33:11;;;;;;;6.72;4.80;;;;;;;;;;5114237;28;20547;-50
2022/05/17 12:35:37;;;;;;;9.75;4.88;;;;;;;;;;5113976;28;20035;-47
2022/05/17 12:43:02;;;;;;;8.70;3.95;;;;;;;;;;5114314;28;20114;-47
2022/05/17 12:43:34;;;;;;;6.90;3.30;;;;;;;;;;5114267;28;20084;-49
2022/05/17 12:46:31;;;;;;;7.78;3.10;;;;;;;;;;5114246;28;20378;-47
2022/05/17 12:49:02;;;;;;;4.13;3.40;;;;;;;;;;5114214;28;20047;-48
2022/05/17 12:51:29;;;;;;;5.88;3.60;;;;;;;;;;5113839;28;20098;-45
2022/05/17 12:53:58;;;;;;;4.75;3.88;;;;;;;;;;5113771;28;20378;-46
2022/05/17 12:56:24;;;;;;;7.95;5.07;;;;;;;;;;5113548;28;20481;-49
2022/05/17 12:58:53;;;;;;;6.40;4.15;;;;;;;;;;5113879;28;20116;-45
2022/05/17 13:01:29;;;;;;;6.47;4.07;;;;;;;;;;5113623;28;20055;-46
2022/05/17 13:03:57;;;;;;;7.05;4.40;;;;;;;;;;5113725;28;20057;-48
2022/05/17 13:06:35;;;;;;;9.40;4.53;;;;;;;;;;5113778;28;20031;-45
2022/05/17 13:09:01;;;;;;;11.27;4.32;;;;;;;;;;5113803;28;20039;-45
2022/05/17 13:11:26;;;;;;;6.80;4.75;;;;;;;;;;5113417;28;20360;-47
2022/05/17 13:14:10;;;;;;;7.97;4.78;;;;;;;;;;5113439;28;20073;-46
2022/05/17 13:16:42;;;;;;;9.45;5.47;;;;;;;;;;5113634;28;20374;-46
2022/05/17 13:19:15;;;;;;;8.98;4.70;;;;;;;;;;5113149;28;20565;-45
2022/05/17 13:21:48;;;;;;;8.05;4.57;;;;;;;;;;5113702;28;20082;-47
2022/05/17 13:24:34;;;;;;;6.47;5.10;;;;;;;;;;5113578;28;20058;-48
2022/05/17 13:27:18;;;;;;;8.50;5.57;;;;;;;;;;5113202;28;20535;-47
2022/05/17 13:29:56;;;;;;;7.10;4.00;;;;;;;;;;5113171;28;20546;-47
2022/05/17 13:32:25;;;;;;;12.45;5.45;;;;;;;;;;5112986;28;20039;-46
2022/05/17 13:35:11;;;;;;;10.00;4.97;;;;;;;;;;5113053;28;20108;-46
2022/05/17 13:38:00;;;;;;;9.30;5.55;;;;;;;;;;5113271;28;20286;-47
2022/05/17 13:40:50;;;;;;;6.17;4.90;;;;;;;;;;5112926;28;20035;-53
2022/05/17 13:43:34;;;;;;;;;;;;;;;;;;5113388;28;20028;-50
2022/05/17 13:46:17;;;;;;;8.82;5.57;;;;;;;;;;5113239;28;19912;-55
2022/05/17 13:48:49;;;;;;;7.50;5.30;;;;;;;;;;5112923;28;20463;-50
2022/05/17 13:51:19;;;;;;;11.35;6.25;;;;;;;;;;5112958;28;20024;-46
2022/05/17 13:53:51;;;;;;;18.95;7.00;;;;;;;;;;5113030;28;20012;-51
2022/05/17 13:56:23;;;;;;;6.90;5.60;;;;;;;;;;5112344;28;20049;-51
2022/05/17 13:58:48;;;;;;;10.75;5.97;;;;;;;;;;5113119;28;20019;-49
2022/05/17 14:01:34;;;;;;;7.57;5.43;;;;;;;;;;5112758;28;20087;-49
2022/05/17 14:04:09;;;;;;;8.50;5.78;;;;;;;;;;5113102;28;20080;-54
2022/05/17 14:06:51;;;;;;;7.80;5.18;;;;;;;;;;5112653;28;20031;-49
2022/05/17 14:12:22;;;;;;;6.10;4.38;;;;;;;;;;5112974;28;20046;-52
2022/05/17 14:14:50;;;;;;;10.30;4.60;;;;;;;;;;5112956;28;20107;-52
2022/05/17 14:17:24;;;;;;;4.80;4.30;;;;;;;;;;5112802;28;20028;-50
2022/05/17 14:19:56;;;;;;;5.50;4.05;;;;;;;;;;5112624;28;20038;-52
2022/05/17 14:22:22;;;;;;;4.82;3.90;;;;;;;;;;5112877;28;20107;-48
2022/05/17 14:24:48;;;;;;;7.97;3.97;;;;;;;;;;5112554;28;20028;-45
2022/05/17 14:27:15;;;;;;;7.10;4.25;;;;;;;;;;5112408;28;20479;-46
2022/05/17 14:29:41;;;;;;;4.85;3.92;;;;;;;;;;5112785;28;20020;-49
2022/05/17 14:32:08;;;;;;;5.28;3.97;;;;;;;;;;5112723;28;20024;-46
2022/05/17 14:34:34;;;;;;;19.70;5.85;;;;;;;;;;5112567;28;20049;-56
2022/05/17 14:37:00;;;;;;;13.60;4.60;;;;;;;;;;5112609;28;20027;-48
2022/05/17 14:39:26;;;;;;;5.55;3.28;;;;;;;;;;5112587;28;20485;-55
2022/05/17 14:41:53;;;;;;;7.05;2.83;;;;;;;;;;5112617;28;20035;-54
2022/05/17 14:44:24;;;;;;;5.97;3.17;;;;;;;;;;5114785;28;20475;-51
2022/05/17 14:46:51;;;;;;;5.15;2.70;;;;;;;;;;5116543;28;20115;-46
2022/05/17 14:49:27;;;;;;;4.38;2.92;;;;;;;;;;5116277;28;20023;-47
2022/05/17 14:51:55;;;;;;;3.00;2.50;;;;;;;;;;5116327;28;20066;-46
2022/05/17 14:54:21;;;;;;;3.58;2.45;;;;;;;;;;5116332;28;20024;-48
2022/05/17 14:56:47;;;;;;;6.93;2.88;;;;;;;;;;5097457;28;20048;-49
2022/05/17 14:59:12;;;;;;;3.78;2.33;;;;;;;;;;5115802;28;20024;-53
2022/05/17 15:01:43;;;;;;;4.07;2.33;;;;;;;;;;5116305;28;20047;-53
2022/05/17 15:04:09;;;;;;;4.43;2.17;;;;;;;;;;5115886;28;20020;-52
2022/05/17 15:06:48;;;;;;;8.75;2.78;;;;;;;;;;5116108;28;20035;-51
2022/05/17 15:09:19;;;;;;;6.05;2.90;;;;;;;;;;5116113;28;20550;-45
2022/05/17 15:11:45;;;;;;;5.53;3.08;;;;;;;;;;5115730;28;20674;-55
2022/05/17 15:14:10;;;;;;;4.05;2.80;;;;;;;;;;5115898;28;20024;-48
2022/05/17 15:16:36;;;;;;;8.77;2.90;;;;;;;;;;5115882;28;20110;-44